Pagrindinis puslapis
METAR-TAF:

METAR-TAF

Oro uostai :

Kokosų, Australija

platuma: 12-11S, ilguma: 096-49E, Aukštis: 3 m

Dabartinis oras

Ataskaita buvo paskelbta 22 minutes, ne 14:30 UTC
Vėjas 18 kt iš Rytų/Pietryčių su gūsio iki 28 kt
Temperatūra 26°C
Drėgmė 74%
Slėgis 1015 hPa
Matomumas 10 km arba daugiau
Išsisklaidę debesys ne aukštis 2600 ft
Apsiniaukę ne aukštis 4000 ft

METAR: YPCC 171430Z AUTO 11018G28KT 9999 // SCT026 OVC040 26/21 Q1015

Laikas: 21:22 (14:52 UTC)

Prognozė

Ataskaita buvo paskelbta 3 valandos ir 33 minutes, ne 11:19 UTC
Prognozė galioja nuo 17 metu 12 UTC su 18 metu 12 UTC
Vėjas 20 kt iš Rytų/Pietryčių su gūsio iki 30 kt
Matomumas: 3000 m
Mažai debesys ne aukštis 1500 ft
Išsisklaidę debesys ne aukštis 2000 ft
Su prošvaistėmis ne aukštis 1200 ft
lietus, lietus

TAF: YPCC 171119Z 1712/1812 11018KT 9999 -SHRA FEW015 SCT020 INTER 1712/1801 12020G30KT 3000 SHRA BKN012

Orai ataskaitas ir orų prognozės (METAR, TAF).

turimą stotys yra geltonos ir raudonos taškus žemėlapyje.

Perkelti pele per norėdami pamatyti stoties vardą.

Tada spustelėkite, norėdami matyti oro stebėjimo ir prognozės.

Norėdami pakeisti žemėlapį: spustelėkite ant žalios mygtukų su juodo kryžiaus žemyn,; žalią mygtuką su brūkšneliu, jei norite nutolinti; arba žalių rodyklių gretimoms žemėlapius.


METAR-TAF: